Time;durP1;ratioP1;P1;durP2;ratioP2;P2;SDS_P1;SDS_P2;PMS_P1;PMS_P2;Temp;Humidity;BMP_temperature;BMP_pressure;BME280_temperature;BME280_humidity;BME280_pressure;Samples;Min_cycle;Max_cycle;Signal;HPM_P1;HPM_P2
2022/03/22 00:01:00;;;;;;;21.83;14.65;;;10.60;93.30;;;;;;5073336;28;23113;-75
2022/03/22 00:03:26;;;;;;;27.58;18.25;;;10.60;93.30;;;;;;5076735;28;20057;-75
2022/03/22 00:05:54;;;;;;;20.65;13.73;;;10.60;93.50;;;;;;5075485;28;20462;-75
2022/03/22 00:08:22;;;;;;;27.15;18.70;;;10.50;93.50;;;;;;5078781;28;20032;-76
2022/03/22 00:10:48;;;;;;;25.02;16.42;;;10.50;93.50;;;;;;5072862;28;20038;-75
2022/03/22 00:13:15;;;;;;;27.17;17.13;;;10.50;93.60;;;;;;5060876;28;20024;-75
2022/03/22 00:15:41;;;;;;;23.60;16.00;;;10.40;93.60;;;;;;5040842;28;20043;-75
2022/03/22 00:18:08;;;;;;;24.60;16.15;;;10.40;93.70;;;;;;5074302;28;21309;-75
2022/03/22 00:20:35;;;;;;;23.77;17.27;;;10.40;93.70;;;;;;5074558;28;20035;-75
2022/03/22 00:23:01;;;;;;;25.73;15.65;;;10.30;93.80;;;;;;5073545;28;20052;-75
2022/03/22 00:25:28;;;;;;;27.30;17.27;;;10.30;93.90;;;;;;5076343;28;20054;-75
2022/03/22 00:27:56;;;;;;;25.95;16.48;;;10.20;94.00;;;;;;5075083;28;20024;-75
2022/03/22 00:30:28;;;;;;;22.27;15.48;;;10.10;94.00;;;;;;5074970;28;20021;-75
2022/03/22 00:39:27;;;;;;;21.05;14.10;;;10.00;94.10;;;;;;5151963;23;20535;-76
2022/03/22 00:42:21;;;;;;;23.73;14.88;;;9.90;94.10;;;;;;5796980;23;21157;31
2022/03/22 00:44:48;;;;;;;21.48;14.65;;;9.90;94.30;;;;;;4901000;29;20058;-76
2022/03/22 00:47:14;;;;;;;22.77;15.48;;;9.90;94.30;;;;;;4908615;29;20016;-76
2022/03/22 00:49:40;;;;;;;28.67;16.08;;;9.80;94.30;;;;;;4905650;29;20062;-76
2022/03/22 00:52:07;;;;;;;23.42;15.32;;;9.80;94.40;;;;;;4907005;29;20024;-76
2022/03/22 00:54:35;;;;;;;22.23;14.18;;;9.80;94.50;;;;;;4905851;29;20470;-76
2022/03/22 00:57:01;;;;;;;24.00;15.40;;;9.80;94.50;;;;;;4890959;29;20032;-76
2022/03/22 01:02:13;;;;;;;24.02;14.93;;;9.70;94.60;;;;;;4908382;29;20094;-76
2022/03/22 01:04:40;;;;;;;23.17;14.95;;;9.70;94.60;;;;;;4906072;29;20035;-76
2022/03/22 01:07:06;;;;;;;25.08;16.05;;;9.70;94.70;;;;;;4906658;29;20032;-76
2022/03/22 01:09:33;;;;;;;21.77;13.80;;;9.60;94.70;;;;;;4909265;29;20387;-79
2022/03/22 01:11:59;;;;;;;21.25;14.82;;;9.60;94.80;;;;;;4908420;29;20387;-76
2022/03/22 01:14:27;;;;;;;19.77;13.65;;;9.60;94.80;;;;;;4904960;29;20395;-76
2022/03/22 01:16:55;;;;;;;24.17;14.88;;;9.60;94.90;;;;;;4907656;29;20055;-76
2022/03/22 01:19:22;;;;;;;21.63;14.57;;;9.60;95.20;;;;;;4911555;29;20023;-76
2022/03/22 01:21:49;;;;;;;23.42;13.80;;;9.60;95.00;;;;;;4907475;29;20032;-76
2022/03/22 01:24:15;;;;;;;21.17;13.63;;;9.60;95.00;;;;;;4908387;29;20639;-76
2022/03/22 01:26:42;;;;;;;21.13;13.55;;;9.50;95.00;;;;;;4878066;29;20379;-76
2022/03/22 01:29:11;;;;;;;21.40;13.85;;;9.50;95.00;;;;;;4912673;29;20032;-76
2022/03/22 01:31:37;;;;;;;23.40;13.90;;;9.50;95.10;;;;;;4908516;29;20041;-76
2022/03/22 01:34:04;;;;;;;21.92;15.18;;;9.50;95.20;;;;;;4911876;29;20016;-76
2022/03/22 01:36:31;;;;;;;20.65;15.10;;;9.50;95.20;;;;;;4912191;29;20028;-76
2022/03/22 01:38:58;;;;;;;19.63;13.23;;;9.50;95.30;;;;;;4913701;29;20035;-76
2022/03/22 01:41:25;;;;;;;22.45;14.18;;;9.40;95.30;;;;;;4909928;29;20025;-76
2022/03/22 01:43:53;;;;;;;21.88;14.55;;;9.40;95.30;;;;;;4923166;28;20044;-76
2022/03/22 01:46:25;;;;;;;21.60;13.90;;;9.40;95.40;;;;;;4907399;29;20031;-76
2022/03/22 01:48:52;;;;;;;21.60;14.57;;;9.30;95.50;;;;;;4895130;29;20056;-76
2022/03/22 01:51:21;;;;;;;21.00;14.70;;;9.30;95.50;;;;;;4904422;29;20387;-77
2022/03/22 01:53:50;;;;;;;21.73;14.82;;;9.30;95.60;;;;;;4893779;29;20039;-76
2022/03/22 01:56:17;;;;;;;20.98;13.40;;;9.20;95.60;;;;;;4908812;29;20025;-76
2022/03/22 01:58:44;;;;;;;19.85;12.98;;;9.20;95.70;;;;;;4893064;29;20032;-74
2022/03/22 02:06:44;;;;;;;22.42;14.75;;;9.00;96.00;;;;;;4906976;29;20036;-75
2022/03/22 02:09:11;;;;;;;21.52;13.93;;;9.00;96.00;;;;;;4906487;29;20517;-75
2022/03/22 02:11:38;;;;;;;20.02;12.55;;;8.90;96.10;;;;;;4906475;29;20036;-75
2022/03/22 02:14:05;;;;;;;23.70;14.68;;;8.90;96.20;;;;;;4892880;29;20052;-75
2022/03/22 02:16:32;;;;;;;21.52;14.50;;;8.80;96.30;;;;;;4906646;29;20055;-75
2022/03/22 02:19:00;;;;;;;21.08;13.48;;;8.80;96.40;;;;;;4891513;29;20069;-76
2022/03/22 02:21:31;;;;;;;22.27;15.55;;;8.70;96.50;;;;;;4904631;29;20040;-76
2022/03/22 02:23:57;;;;;;;20.55;14.13;;;8.70;96.60;;;;;;4904914;29;20039;-76
2022/03/22 02:26:26;;;;;;;20.58;13.68;;;8.70;96.70;;;;;;4892275;29;20033;-76
2022/03/22 02:28:53;;;;;;;18.25;12.45;;;8.60;96.70;;;;;;4908280;29;20031;-76
2022/03/22 02:31:22;;;;;;;21.23;13.88;;;8.60;96.80;;;;;;4902169;29;20021;-76
2022/03/22 02:33:48;;;;;;;22.23;15.57;;;8.60;96.80;;;;;;4909383;29;20503;-76
2022/03/22 02:36:15;;;;;;;20.80;13.48;;;8.60;97.30;;;;;;4906283;29;20032;-76
2022/03/22 02:38:42;;;;;;;20.70;14.55;;;8.60;97.00;;;;;;4906901;29;20364;-76
2022/03/22 02:41:15;;;;;;;19.90;13.90;;;8.60;97.10;;;;;;4904478;29;20036;-76
2022/03/22 02:43:42;;;;;;;22.48;13.77;;;8.50;97.10;;;;;;4892591;29;20068;-76
2022/03/22 02:46:08;;;;;;;23.00;14.30;;;8.50;97.10;;;;;;4888404;29;20029;-76
2022/03/22 02:48:35;;;;;;;20.95;13.25;;;8.50;97.20;;;;;;4883738;29;20033;-76
2022/03/22 02:51:01;;;;;;;23.45;15.43;;;8.40;97.30;;;;;;4883383;29;20028;-76
2022/03/22 02:53:28;;;;;;;23.45;15.65;;;8.40;97.50;;;;;;4887439;29;20020;-76
2022/03/22 02:55:54;;;;;;;23.33;15.30;;;8.40;97.50;;;;;;4899755;29;20044;-76
2022/03/22 02:58:21;;;;;;;22.60;13.90;;;8.30;97.70;;;;;;4886947;29;20476;-77
2022/03/22 03:00:48;;;;;;;20.60;12.95;;;8.30;97.70;;;;;;4881181;29;20048;-76
2022/03/22 03:03:14;;;;;;;24.17;15.18;;;8.20;97.80;;;;;;4886617;29;20036;-77
2022/03/22 03:05:41;;;;;;;21.23;14.38;;;8.20;97.90;;;;;;4885100;29;20029;-75
2022/03/22 03:08:07;;;;;;;23.10;15.05;;;8.20;98.00;;;;;;4885641;29;20029;-76
2022/03/22 03:10:34;;;;;;;23.48;14.35;;;8.10;98.10;;;;;;4851791;29;20024;-76
2022/03/22 03:13:02;;;;;;;22.05;14.18;;;8.10;98.30;;;;;;4885553;29;20384;-76
2022/03/22 03:15:30;;;;;;;19.98;13.90;;;8.10;98.40;;;;;;4899444;29;20028;-75
2022/03/22 03:18:02;;;;;;;23.75;14.77;;;8.10;98.60;;;;;;4869026;29;20037;-75
2022/03/22 03:20:29;;;;;;;32.30;17.23;;;8.10;98.70;;;;;;4866593;29;20039;-76
2022/03/22 03:22:56;;;;;;;25.23;15.95;;;8.10;99.00;;;;;;4885048;29;20028;-76
2022/03/22 03:25:23;;;;;;;27.67;18.02;;;8.20;98.90;;;;;;4886669;29;20388;-76
2022/03/22 03:27:49;;;;;;;22.48;15.65;;;8.20;99.10;;;;;;4884727;29;20059;-76
2022/03/22 03:30:16;;;;;;;22.23;14.27;;;8.10;99.00;;;;;;4896818;29;20476;-75
2022/03/22 03:32:43;;;;;;;21.70;13.63;;;8.10;99.10;;;;;;4884891;29;20476;-76
2022/03/22 03:35:10;;;;;;;22.90;13.68;;;8.00;99.20;;;;;;4869287;29;20028;-76
2022/03/22 03:37:37;;;;;;;23.60;15.55;;;7.90;99.30;;;;;;4885871;29;20388;-76
2022/03/22 03:40:05;;;;;;;22.85;14.70;;;7.80;99.50;;;;;;4878887;29;20025;-75
2022/03/22 03:42:32;;;;;;;23.17;15.13;;;7.80;99.60;;;;;;4885616;29;20062;-76
2022/03/22 03:47:44;;;;;;;19.25;13.73;;;7.70;99.80;;;;;;4920936;29;20488;-75
2022/03/22 03:50:10;;;;;;;21.23;13.93;;;7.70;99.90;;;;;;4905638;29;20032;-76
2022/03/22 03:52:37;;;;;;;19.17;13.88;;;7.70;99.90;;;;;;4909500;29;20034;-76
2022/03/22 03:55:06;;;;;;;20.83;13.57;;;7.70;99.90;;;;;;4905480;29;20363;-77
2022/03/22 03:57:33;;;;;;;20.30;14.35;;;7.70;99.90;;;;;;4922570;29;20055;-76
2022/03/22 03:59:59;;;;;;;22.55;14.23;;;7.70;99.90;;;;;;4919890;29;20040;-77
2022/03/22 04:02:26;;;;;;;22.40;14.80;;;7.70;99.90;;;;;;4883354;29;20467;-77
2022/03/22 04:04:52;;;;;;;18.15;11.52;;;7.70;99.90;;;;;;4923787;29;20027;-76
2022/03/22 04:07:22;;;;;;;21.13;14.18;;;7.60;99.90;;;;;;4910766;29;20032;-76
2022/03/22 04:09:49;;;;;;;25.15;14.43;;;7.60;99.90;;;;;;4918997;29;20036;-77
2022/03/22 04:12:16;;;;;;;23.88;16.23;;;7.60;99.90;;;;;;4895948;29;20024;-77
2022/03/22 04:14:43;;;;;;;22.48;15.40;;;7.60;99.90;;;;;;4923007;29;20031;-77
2022/03/22 04:17:09;;;;;;;24.27;15.60;;;7.60;99.90;;;;;;4910366;29;20058;-76
2022/03/22 04:19:36;;;;;;;22.23;13.45;;;7.60;99.90;;;;;;4880056;29;20031;-76
2022/03/22 04:22:04;;;;;;;23.65;15.07;;;7.50;99.90;;;;;;4908514;29;20024;-76
2022/03/22 04:24:30;;;;;;;24.45;16.25;;;7.50;99.90;;;;;;4893375;29;20059;-75
2022/03/22 04:32:41;;;;;;;22.90;14.95;;;7.50;99.90;;;;;;4921902;29;20036;-76
2022/03/22 04:32:43;;;;;;;19.90;14.18;;;7.50;99.90;;;;;;4905369;29;20039;-76
2022/03/22 04:35:17;;;;;;;22.75;15.23;;;7.40;99.90;;;;;;4922196;29;20040;-76
2022/03/22 04:37:45;;;;;;;24.05;16.60;;;7.40;99.90;;;;;;4922618;29;20529;-76
2022/03/22 04:40:14;;;;;;;22.13;14.85;;;7.40;99.90;;;;;;4903504;29;20035;-76
2022/03/22 04:42:42;;;;;;;22.55;15.60;;;7.40;99.90;;;;;;4923561;29;20055;-76
2022/03/22 04:45:09;;;;;;;24.35;15.55;;;7.40;99.90;;;;;;4907697;29;20050;-76
2022/03/22 04:47:36;;;;;;;20.85;13.93;;;7.40;99.90;;;;;;4920841;29;20024;-76
2022/03/22 04:50:04;;;;;;;20.02;15.00;;;7.30;99.90;;;;;;4887092;29;20043;-75
2022/03/22 04:58:02;;;;;;;20.90;14.25;;;7.30;99.90;;;;;;4912949;29;20046;-75
2022/03/22 05:00:28;;;;;;;22.63;14.43;;;7.30;99.90;;;;;;4908144;29;20054;-75
2022/03/22 05:02:57;;;;;;;21.90;15.45;;;7.30;99.90;;;;;;4899809;29;20023;-76
2022/03/22 05:08:08;;;;;;;23.08;14.55;;;7.30;99.90;;;;;;4925481;29;20412;-75
2022/03/22 05:10:35;;;;;;;25.05;16.02;;;7.40;99.90;;;;;;4908413;29;20046;-76
2022/03/22 05:13:04;;;;;;;23.02;15.43;;;7.40;99.90;;;;;;4912568;29;20028;-77
2022/03/22 05:15:32;;;;;;;23.25;15.65;;;7.40;99.90;;;;;;4925353;29;20039;-77
2022/03/22 05:17:59;;;;;;;24.33;15.13;;;7.50;99.90;;;;;;4924981;29;20039;-76
2022/03/22 05:20:26;;;;;;;24.92;16.08;;;7.50;99.90;;;;;;4907712;29;20027;-76
2022/03/22 05:22:52;;;;;;;26.40;16.25;;;7.50;99.90;;;;;;4927766;29;20024;-76
2022/03/22 05:25:19;;;;;;;24.08;16.33;;;7.50;99.90;;;;;;4926179;29;20035;-76
2022/03/22 05:27:46;;;;;;;24.02;15.93;;;7.60;99.90;;;;;;4909600;29;22865;-77
2022/03/22 05:30:16;;;;;;;23.33;15.10;;;7.60;99.90;;;;;;4907816;29;20368;-75
2022/03/22 05:32:42;;;;;;;23.08;16.05;;;7.70;99.90;;;;;;4884853;29;20028;-77
2022/03/22 05:35:09;;;;;;;26.60;16.98;;;7.70;99.90;;;;;;4910882;29;20510;-77
2022/03/22 05:37:35;;;;;;;23.40;16.15;;;7.70;99.90;;;;;;4928673;29;20031;-77
2022/03/22 05:40:03;;;;;;;25.25;15.93;;;7.80;99.90;;;;;;4923705;29;20035;-77
2022/03/22 05:42:30;;;;;;;27.77;14.65;;;7.80;99.90;;;;;;4909561;29;20027;-76
2022/03/22 05:44:56;;;;;;;23.45;15.60;;;7.90;99.90;;;;;;4925310;29;20055;-77
2022/03/22 05:47:23;;;;;;;22.67;15.32;;;7.90;99.90;;;;;;4897299;29;20015;-77
2022/03/22 05:49:49;;;;;;;24.75;15.85;;;7.90;99.90;;;;;;4921014;29;20043;-76
2022/03/22 05:52:16;;;;;;;25.15;16.00;;;8.00;99.90;;;;;;4887936;29;20031;-78
2022/03/22 05:54:42;;;;;;;27.98;17.55;;;8.00;99.90;;;;;;4900087;29;20031;-77
2022/03/22 05:57:10;;;;;;;24.42;16.30;;;8.10;99.90;;;;;;4912051;29;20035;-78
2022/03/22 05:59:36;;;;;;;23.75;16.75;;;8.10;99.90;;;;;;4910367;29;20409;-76
2022/03/22 06:02:04;;;;;;;22.67;15.52;;;8.10;99.90;;;;;;4925281;29;20035;-75
2022/03/22 06:04:30;;;;;;;26.85;16.17;;;8.20;99.90;;;;;;4908663;29;20090;-75
2022/03/22 06:06:57;;;;;;;23.90;15.15;;;8.30;99.90;;;;;;4922948;29;20360;-76
2022/03/22 06:09:23;;;;;;;23.40;16.23;;;8.40;99.90;;;;;;4926923;29;20027;-76
2022/03/22 06:11:49;;;;;;;21.08;15.25;;;8.50;99.90;;;;;;4892641;29;20032;-76
2022/03/22 06:14:16;;;;;;;26.90;16.77;;;8.60;99.90;;;;;;4912588;29;20020;-76
2022/03/22 06:16:42;;;;;;;22.45;16.48;;;8.70;99.90;;;;;;4907387;29;20024;-75
2022/03/22 06:19:09;;;;;;;25.40;17.77;;;8.80;99.90;;;;;;4924602;29;20035;-76
2022/03/22 06:21:35;;;;;;;25.80;18.65;;;8.90;99.90;;;;;;4921368;29;20035;-76
2022/03/22 06:24:03;;;;;;;30.52;21.02;;;9.00;99.90;;;;;;4926047;29;20043;-76
2022/03/22 06:26:29;;;;;;;32.80;20.30;;;9.10;99.90;;;;;;4911600;29;21570;-76
2022/03/22 06:28:57;;;;;;;28.70;20.23;;;9.10;99.90;;;;;;4928570;29;20032;-76
2022/03/22 06:31:23;;;;;;;25.25;17.20;;;9.30;99.90;;;;;;4907699;29;20035;-77
2022/03/22 06:33:50;;;;;;;27.30;19.17;;;9.40;99.90;;;;;;4897145;29;20034;-77
2022/03/22 06:36:16;;;;;;;29.55;20.17;;;9.50;99.90;;;;;;4892323;29;20031;-76
2022/03/22 06:38:43;;;;;;;26.92;19.33;;;9.60;99.90;;;;;;4894116;29;20020;-77
2022/03/22 06:41:10;;;;;;;29.40;18.70;;;9.70;99.80;;;;;;4903438;29;21155;-77
2022/03/22 06:43:37;;;;;;;31.17;19.85;;;9.80;99.50;;;;;;4909215;29;20039;-77
2022/03/22 06:46:36;;;;;;;32.83;21.33;;;9.90;99.20;;;;;;4910111;29;20044;-84
2022/03/22 06:49:06;;;;;;;30.38;18.75;;;10.10;98.90;;;;;;4882977;29;22584;-81
2022/03/22 06:51:35;;;;;;;28.08;19.50;;;10.20;98.70;;;;;;4910871;29;20028;-82
2022/03/22 06:54:02;;;;;;;29.50;20.80;;;10.40;98.30;;;;;;4907010;29;20052;-83
2022/03/22 06:56:42;;;;;;;27.70;18.67;;;10.50;97.80;;;;;;4928979;29;20035;-82
2022/03/22 06:59:26;;;;;;;29.33;19.92;;;10.60;97.50;;;;;;4903726;29;20052;-84
2022/03/22 07:02:27;;;;;;;29.60;20.20;;;10.70;97.10;;;;;;4900689;29;20605;-83
2022/03/22 07:05:34;;;;;;;37.33;21.50;;;10.90;96.80;;;;;;4905215;29;20043;-84
2022/03/22 07:08:20;;;;;;;29.95;20.50;;;11.00;95.70;;;;;;4886151;29;20027;-85
2022/03/22 07:14:52;;;;;;;34.38;22.45;;;11.30;95.30;;;;;;4904106;29;20051;-84
2022/03/22 07:17:26;;;;;;;32.25;22.52;;;11.40;94.90;;;;;;4883347;29;20060;-85
2022/03/22 07:20:04;;;;;;;37.10;24.42;;;11.40;94.00;;;;;;4903035;29;20058;-84
2022/03/22 07:23:27;;;;;;;29.10;19.65;;;11.50;93.70;;;;;;4902257;29;20054;-84
2022/03/22 07:26:15;;;;;;;32.05;23.58;;;11.60;93.60;;;;;;4902768;29;20043;-85
2022/03/22 07:28:59;;;;;;;36.10;22.85;;;11.70;93.30;;;;;;4914160;29;20039;-81
2022/03/22 07:31:26;;;;;;;29.85;21.38;;;11.80;93.20;;;;;;4911701;29;20448;-81
2022/03/22 07:33:56;;;;;;;30.75;21.02;;;11.80;93.10;;;;;;4884265;29;20047;-86
2022/03/22 07:36:23;;;;;;;32.00;20.95;;;11.90;92.90;;;;;;4929440;29;20035;-80
2022/03/22 07:38:52;;;;;;;31.73;21.83;;;12.00;92.80;;;;;;4931575;29;20027;-84
2022/03/22 07:41:23;;;;;;;28.13;20.85;;;12.10;92.50;;;;;;4886667;29;20035;-83
2022/03/22 07:43:49;;;;;;;29.52;21.33;;;12.20;92.30;;;;;;4893836;29;20511;-84
2022/03/22 07:46:17;;;;;;;31.55;21.77;;;12.30;92.00;;;;;;4912843;29;20048;-83
2022/03/22 07:48:46;;;;;;;24.75;19.35;;;12.30;91.40;;;;;;4883576;29;20045;-83
2022/03/22 07:54:00;;;;;;;28.67;19.85;;;12.50;90.80;;;;;;4899833;29;20035;-83
2022/03/22 07:56:27;;;;;;;24.10;18.23;;;12.60;90.80;;;;;;4910954;29;20040;-85
2022/03/22 07:58:57;;;;;;;22.48;17.02;;;12.70;90.80;;;;;;4898360;29;20483;-84
2022/03/22 08:01:27;;;;;;;26.27;17.80;;;12.90;90.70;;;;;;4887541;29;20048;-84
2022/03/22 08:03:54;;;;;;;27.08;18.75;;;13.00;90.50;;;;;;4916402;29;20048;-85
2022/03/22 08:06:20;;;;;;;25.92;17.85;;;13.10;90.00;;;;;;4888805;29;20043;-83
2022/03/22 08:08:47;;;;;;;24.17;17.95;;;13.30;89.90;;;;;;4899886;29;20036;-83
2022/03/22 08:11:17;;;;;;;26.20;17.27;;;13.40;88.00;;;;;;4884068;29;20033;-83
2022/03/22 08:13:43;;;;;;;21.63;15.60;;;13.40;87.90;;;;;;4893200;29;20033;-83
2022/03/22 08:16:11;;;;;;;21.33;16.20;;;13.60;88.00;;;;;;4883230;29;20388;-84
2022/03/22 08:18:38;;;;;;;23.15;17.42;;;13.70;87.20;;;;;;4881447;29;20061;-85
2022/03/22 08:21:04;;;;;;;20.95;16.25;;;13.80;86.40;;;;;;4894547;29;20407;-83
2022/03/22 08:23:31;;;;;;;25.80;17.48;;;13.90;86.20;;;;;;4879684;29;20370;-83
2022/03/22 08:26:00;;;;;;;24.52;17.83;;;14.10;85.50;;;;;;4911353;29;20040;-82
2022/03/22 08:28:27;;;;;;;30.15;19.75;;;14.20;84.70;;;;;;4892574;29;20057;-83
2022/03/22 08:30:54;;;;;;;24.27;18.48;;;14.30;83.70;;;;;;4873120;29;20068;-84
2022/03/22 08:33:34;;;;;;;25.20;18.73;;;14.30;82.90;;;;;;4904105;29;20033;-82
2022/03/22 08:36:05;;;;;;;26.67;18.25;;;14.40;82.30;;;;;;4895199;29;20146;-84
2022/03/22 08:38:33;;;;;;;24.30;17.90;;;14.50;81.60;;;;;;4889231;29;20044;-83
2022/03/22 08:41:15;;;;;;;30.63;20.20;;;14.60;81.20;;;;;;4887946;29;20033;-82
2022/03/22 08:44:14;;;;;;;30.23;20.98;;;14.70;79.10;;;;;;4895790;29;20048;-84
2022/03/22 08:46:44;;;;;;;26.52;19.02;;;14.70;78.20;;;;;;4892750;29;20045;-84
2022/03/22 08:49:11;;;;;;;22.90;17.63;;;14.60;78.40;;;;;;4865247;29;20043;-85
2022/03/22 08:51:38;;;;;;;33.63;20.67;;;14.80;78.80;;;;;;4893019;29;20033;-85
2022/03/22 08:54:06;;;;;;;25.02;17.92;;;14.90;77.40;;;;;;4881191;29;20037;-84
2022/03/22 08:56:32;;;;;;;28.48;20.25;;;14.90;77.50;;;;;;4832315;29;20426;-81
2022/03/22 08:59:01;;;;;;;25.50;17.80;;;15.00;76.80;;;;;;4879245;29;20058;-84
2022/03/22 09:01:28;;;;;;;21.35;16.10;;;15.00;76.70;;;;;;4857828;29;20630;-83
2022/03/22 09:06:40;;;;;;;23.63;17.90;;;15.20;77.60;;;;;;4878103;29;20033;-82
2022/03/22 09:09:09;;;;;;;24.08;16.98;;;15.40;77.40;;;;;;4864907;29;20380;-82
2022/03/22 09:11:39;;;;;;;29.15;21.45;;;15.60;76.70;;;;;;4863266;29;20036;-81
2022/03/22 09:14:06;;;;;;;26.58;20.27;;;15.70;76.30;;;;;;4904901;29;20037;-85
2022/03/22 09:16:33;;;;;;;25.60;17.60;;;15.80;75.30;;;;;;4862650;29;20388;-84
2022/03/22 09:19:00;;;;;;;28.13;21.17;;;15.90;75.80;;;;;;4879340;29;20062;-84
2022/03/22 09:21:27;;;;;;;25.15;19.45;;;16.00;74.70;;;;;;4876586;29;20384;-83
2022/03/22 09:23:54;;;;;;;23.15;17.90;;;16.00;74.50;;;;;;4876223;29;20047;-84
2022/03/22 09:26:21;;;;;;;25.65;19.50;;;16.10;74.20;;;;;;4880185;29;20047;-84
2022/03/22 09:28:52;;;;;;;30.50;21.13;;;16.20;73.40;;;;;;4875128;29;20044;-84
2022/03/22 09:31:20;;;;;;;30.40;20.63;;;16.20;72.20;;;;;;4876810;29;20040;-84
2022/03/22 09:33:48;;;;;;;26.27;19.13;;;16.30;72.60;;;;;;4891298;29;20027;-84
2022/03/22 09:36:15;;;;;;;26.77;19.83;;;16.40;72.70;;;;;;4878310;29;20488;-84
2022/03/22 09:38:42;;;;;;;28.75;20.00;;;16.50;72.80;;;;;;4894012;29;20040;-84
2022/03/22 09:41:15;;;;;;;30.00;20.58;;;16.70;72.40;;;;;;4857446;29;20055;-84
2022/03/22 09:43:48;;;;;;;;;;;16.80;72.60;;;;;;4890365;29;20377;-84
2022/03/22 09:46:22;;;;;;;26.30;18.27;;;17.00;73.00;;;;;;4911164;29;19938;-84
2022/03/22 09:48:49;;;;;;;25.15;17.55;;;17.10;71.60;;;;;;4909460;29;20484;-84
2022/03/22 09:54:07;;;;;;;29.17;20.15;;;17.40;69.90;;;;;;4895271;29;20048;-84
2022/03/22 09:56:34;;;;;;;;;;;17.40;69.50;;;;;;4924182;29;20387;-83
2022/03/22 09:59:03;;;;;;;22.15;17.27;;;17.60;69.60;;;;;;4896419;29;19915;-83
2022/03/22 10:01:33;;;;;;;23.23;16.60;;;17.60;69.70;;;;;;4906895;29;20515;-83
2022/03/22 10:04:02;;;;;;;23.63;17.52;;;17.80;70.20;;;;;;4896040;29;20036;-84
2022/03/22 10:06:32;;;;;;;26.30;20.85;;;18.00;69.80;;;;;;4923760;29;20048;-84
2022/03/22 10:09:01;;;;;;;30.83;20.33;;;18.20;68.60;;;;;;4908708;29;20036;-85
2022/03/22 10:11:41;;;;;;;25.95;17.80;;;18.30;68.00;;;;;;4880976;29;20031;-84
2022/03/22 10:14:12;;;;;;;26.63;18.33;;;18.50;68.30;;;;;;4893115;29;20426;-84
2022/03/22 10:16:52;;;;;;;22.58;16.85;;;18.60;68.80;;;;;;4910384;29;20040;-84
2022/03/22 10:19:22;;;;;;;24.70;17.80;;;18.80;68.00;;;;;;4925934;29;20048;-84
2022/03/22 10:21:49;;;;;;;28.55;20.52;;;18.90;68.00;;;;;;4911715;29;20349;-83
2022/03/22 10:24:15;;;;;;;25.58;18.10;;;19.10;67.70;;;;;;4884356;29;20091;-84
2022/03/22 10:26:44;;;;;;;29.05;20.48;;;19.30;67.30;;;;;;4886823;29;20475;-84
2022/03/22 10:29:15;;;;;;;27.63;19.40;;;19.50;66.40;;;;;;4911365;29;20476;-84
2022/03/22 10:31:43;;;;;;;27.77;19.85;;;19.70;66.40;;;;;;4879232;29;20035;-83
2022/03/22 10:34:13;;;;;;;26.65;19.83;;;20.00;65.40;;;;;;4893322;29;20043;-80
2022/03/22 10:36:42;;;;;;;28.70;20.27;;;20.20;65.10;;;;;;4898659;29;20032;-80
2022/03/22 10:39:10;;;;;;;28.92;20.45;;;20.40;63.70;;;;;;4911294;29;20044;-80
2022/03/22 10:41:45;;;;;;;29.20;21.45;;;20.60;62.40;;;;;;4908000;29;20029;-80
2022/03/22 10:44:18;;;;;;;26.38;19.73;;;20.70;60.10;;;;;;4866704;29;20052;-80
2022/03/22 10:46:46;;;;;;;25.00;17.75;;;20.70;60.90;;;;;;4875031;29;20036;-80
2022/03/22 10:49:15;;;;;;;25.88;20.58;;;20.80;61.10;;;;;;4876866;29;20033;-79
2022/03/22 10:51:44;;;;;;;25.98;19.45;;;21.10;61.40;;;;;;4887668;29;20472;-79
2022/03/22 10:54:15;;;;;;;27.23;21.85;;;21.40;61.10;;;;;;4878765;29;20400;-79
2022/03/22 10:56:46;;;;;;;23.25;19.73;;;21.70;59.20;;;;;;4890006;29;20040;-79
2022/03/22 10:59:15;;;;;;;28.23;22.42;;;21.90;58.30;;;;;;4860218;29;20013;-80
2022/03/22 11:01:43;;;;;;;27.77;20.95;;;22.00;57.90;;;;;;4856770;29;20029;-79
2022/03/22 11:04:12;;;;;;;24.15;20.13;;;22.20;56.50;;;;;;4891285;29;20060;-80
2022/03/22 11:06:38;;;;;;;25.05;19.92;;;22.30;56.00;;;;;;4891871;29;20496;-80
2022/03/22 11:09:06;;;;;;;27.98;21.70;;;22.60;55.90;;;;;;4892452;29;20028;-84
2022/03/22 11:11:33;;;;;;;23.38;18.77;;;22.90;55.60;;;;;;4886858;29;20531;-83
2022/03/22 11:14:00;;;;;;;22.58;17.85;;;23.10;55.00;;;;;;4907010;29;20047;-83
2022/03/22 11:16:29;;;;;;;28.13;20.30;;;23.40;55.50;;;;;;4873416;29;20024;-83
2022/03/22 11:18:59;;;;;;;25.25;18.80;;;23.70;53.70;;;;;;4884668;29;20036;-80
2022/03/22 11:21:27;;;;;;;24.15;18.30;;;23.80;52.20;;;;;;4900343;29;20024;-83
2022/03/22 11:24:10;;;;;;;25.58;19.33;;;23.80;51.50;;;;;;4890389;29;20040;-83
2022/03/22 11:26:44;;;;;;;28.67;23.85;;;23.80;51.20;;;;;;4881544;29;20404;-83
2022/03/22 11:29:12;;;;;;;28.40;21.33;;;23.90;51.20;;;;;;4905069;29;20384;-81
2022/03/22 11:31:41;;;;;;;28.85;21.38;;;23.90;51.00;;;;;;4854576;29;20547;-79
2022/03/22 11:34:09;;;;;;;25.63;19.27;;;24.20;50.20;;;;;;4904728;29;20028;-79
2022/03/22 11:36:45;;;;;;;22.27;18.38;;;24.40;50.60;;;;;;4871721;29;20053;-79
2022/03/22 11:42:15;;;;;;;22.88;19.35;;;24.60;49.60;;;;;;4873381;29;20060;-79
2022/03/22 11:42:20;;;;;;;23.13;18.77;;;24.80;48.80;;;;;;4888008;29;20032;-79
2022/03/22 11:44:59;;;;;;;22.88;17.98;;;24.90;48.90;;;;;;4926920;29;20460;-80
2022/03/22 11:47:39;;;;;;;23.98;19.45;;;25.00;48.00;;;;;;4931649;29;20483;-80
2022/03/22 11:50:13;;;;;;;23.20;18.75;;;25.10;47.60;;;;;;4912549;29;20020;-83
2022/03/22 11:52:41;;;;;;;22.45;18.00;;;25.10;47.80;;;;;;4914189;29;20043;-80
2022/03/22 11:55:13;;;;;;;20.77;16.42;;;25.20;48.30;;;;;;4914666;29;20121;-80
2022/03/22 11:57:44;;;;;;;20.70;17.63;;;25.50;47.80;;;;;;4901367;29;20032;-81
2022/03/22 12:00:16;;;;;;;;;;;25.80;47.70;;;;;;4911152;29;20066;-80
2022/03/22 12:02:59;;;;;;;26.83;19.85;;;26.10;46.50;;;;;;4899446;29;19917;-81
2022/03/22 12:05:25;;;;;;;23.95;19.40;;;26.00;46.60;;;;;;4911246;29;21672;-82
2022/03/22 12:08:09;;;;;;;24.58;19.02;;;26.00;45.70;;;;;;4911161;29;20390;-82
2022/03/22 12:10:37;;;;;;;23.42;18.48;;;26.10;45.60;;;;;;4924919;29;20035;-79
2022/03/22 12:13:04;;;;;;;22.42;18.55;;;26.00;45.50;;;;;;4920246;29;20116;-86
2022/03/22 12:18:59;;;;;;;23.38;17.73;;;26.30;44.80;;;;;;4925765;29;20055;-85
2022/03/22 12:21:46;;;;;;;23.30;17.42;;;26.70;44.30;;;;;;4909399;29;20082;-85
2022/03/22 12:24:16;;;;;;;22.45;18.95;;;26.80;43.60;;;;;;4922461;29;20024;-83
2022/03/22 12:26:51;;;;;;;31.13;27.83;;;26.80;43.90;;;;;;4905346;29;20043;-84
2022/03/22 12:29:20;;;;;;;24.50;19.20;;;26.70;44.40;;;;;;4926701;29;20036;-84
2022/03/22 12:31:53;;;;;;;21.17;18.10;;;26.70;44.40;;;;;;4900041;29;20046;-84
2022/03/22 12:34:25;;;;;;;21.13;17.80;;;26.90;43.50;;;;;;4895806;29;20546;-82
2022/03/22 12:36:52;;;;;;;21.85;17.73;;;27.10;43.30;;;;;;4912922;29;20035;-82
2022/03/22 12:39:19;;;;;;;20.73;17.77;;;27.40;43.00;;;;;;4882157;29;20475;-82
2022/03/22 12:41:48;;;;;;;24.92;19.15;;;27.70;43.10;;;;;;4909285;29;20024;-82
2022/03/22 12:44:15;;;;;;;20.23;17.27;;;28.10;41.90;;;;;;4880392;29;20105;-82
2022/03/22 12:46:42;;;;;;;22.05;16.75;;;28.20;42.30;;;;;;4876429;29;20047;-81
2022/03/22 12:49:12;;;;;;;31.00;18.05;;;28.50;42.10;;;;;;4892246;29;20036;-82
2022/03/22 12:51:48;;;;;;;20.20;17.73;;;28.90;41.50;;;;;;4903987;29;20043;-83
2022/03/22 12:54:17;;;;;;;21.92;17.42;;;29.10;40.10;;;;;;4882310;29;20043;-83
2022/03/22 12:56:48;;;;;;;25.55;20.48;;;29.20;40.10;;;;;;4895440;29;20050;-83
2022/03/22 12:59:23;;;;;;;23.33;19.88;;;29.30;38.50;;;;;;4894700;29;20387;-80
2022/03/22 13:01:56;;;;;;;22.80;19.85;;;29.10;39.20;;;;;;4891647;29;20031;-80
2022/03/22 13:04:29;;;;;;;23.02;20.42;;;29.00;38.50;;;;;;4892498;29;20043;-80
2022/03/22 13:07:01;;;;;;;23.45;18.67;;;28.90;38.40;;;;;;4894427;29;20567;-81
2022/03/22 13:12:16;;;;;;;23.67;20.33;;;28.80;38.10;;;;;;4923037;29;20035;-82
2022/03/22 13:15:04;;;;;;;24.45;20.13;;;29.00;38.30;;;;;;4882434;29;20050;-81
2022/03/22 13:17:37;;;;;;;21.88;18.80;;;29.00;38.00;;;;;;4915900;29;20042;-85
2022/03/22 13:20:13;;;;;;;31.20;21.38;;;29.20;38.10;;;;;;4911109;29;20032;-84
2022/03/22 13:23:12;;;;;;;22.73;17.98;;;29.30;37.30;;;;;;4915946;29;20039;-84
2022/03/22 13:25:41;;;;;;;26.73;18.80;;;29.20;37.00;;;;;;4930561;29;20059;-84
2022/03/22 13:28:09;;;;;;;22.85;19.10;;;29.30;37.10;;;;;;4917739;29;20135;-84
2022/03/22 13:30:38;;;;;;;24.58;19.05;;;29.00;36.90;;;;;;4898524;29;20035;-83
2022/03/22 13:33:10;;;;;;;22.77;18.85;;;28.50;37.20;;;;;;4910961;29;20840;-83